Time;durP1;ratioP1;P1;durP2;ratioP2;P2;SDS_P1;SDS_P2;PMS_P1;PMS_P2;Temp;Humidity;BMP_temperature;BMP_pressure;BME280_temperature;BME280_humidity;BME280_pressure;Samples;Min_cycle;Max_cycle;Signal;HPM_P1;HPM_P2
2024/02/21 00:00:29;;;;;;;;;;;8.70;82.80;;;;;;4963122;28;19953;-61
2024/02/21 00:03:04;;;;;;;;;;;8.60;82.90;;;;;;4968662;28;20021;-63
2024/02/21 00:08:52;;;;;;;;;;;8.60;83.00;;;;;;4963508;28;19984;-61
2024/02/21 00:11:25;;;;;;;;;;;8.60;83.00;;;;;;4959652;28;19961;-61
2024/02/21 00:13:58;;;;;;;;;;;8.60;83.10;;;;;;4967663;28;19932;-61
2024/02/21 00:16:31;;;;;;;;;;;8.50;83.20;;;;;;4962801;28;19934;-63
2024/02/21 00:19:05;;;;;;;;;;;8.50;83.40;;;;;;4966353;28;19938;-62
2024/02/21 00:21:39;;;;;;;;;;;8.50;83.40;;;;;;4964367;28;19966;-64
2024/02/21 00:24:12;;;;;;;;;;;8.60;83.40;;;;;;4970370;28;20384;-62
2024/02/21 00:26:45;;;;;;;;;;;8.50;83.40;;;;;;4969944;28;20396;-61
2024/02/21 00:29:18;;;;;;;;;;;8.50;83.50;;;;;;4969263;28;20400;-62
2024/02/21 00:35:34;;;;;;;;;;;8.60;83.50;;;;;;4969970;28;19933;-60
2024/02/21 00:38:07;;;;;;;;;;;8.50;83.40;;;;;;4969421;28;20345;-61
2024/02/21 00:40:40;;;;;;;;;;;8.60;83.40;;;;;;4969250;28;19926;-59
2024/02/21 00:43:13;;;;;;;;;;;8.60;83.40;;;;;;4969683;28;19933;-61
2024/02/21 00:45:46;;;;;;;;;;;8.60;83.40;;;;;;4969413;28;19926;-62
2024/02/21 00:48:19;;;;;;;;;;;8.60;83.50;;;;;;4965408;28;19930;-60
2024/02/21 00:50:59;;;;;;;;;;;8.60;83.80;;;;;;4969466;28;20551;-60
2024/02/21 00:53:33;;;;;;;;;;;8.60;83.90;;;;;;4969773;28;20333;-61
2024/02/21 00:56:06;;;;;;;;;;;8.60;84.10;;;;;;4968899;28;19926;-61
2024/02/21 00:58:40;;;;;;;;;;;8.60;84.20;;;;;;4964626;28;19930;-62
2024/02/21 01:01:13;;;;;;;;;;;8.50;84.70;;;;;;4969592;28;19956;-61
2024/02/21 01:03:46;;;;;;;;;;;8.60;84.70;;;;;;4967006;28;20001;-61
2024/02/21 01:06:20;;;;;;;;;;;8.50;85.10;;;;;;4967401;28;19933;-60
2024/02/21 01:08:54;;;;;;;;;;;8.50;85.50;;;;;;4958156;28;20385;-61
2024/02/21 01:11:27;;;;;;;;;;;8.50;85.60;;;;;;4968674;28;19926;-60
2024/02/21 01:14:00;;;;;;;;;;;8.40;85.70;;;;;;4962360;28;19940;-61
2024/02/21 01:16:33;;;;;;;;;;;8.40;85.80;;;;;;4962231;28;19965;-60
2024/02/21 01:19:06;;;;;;;;;;;8.50;85.90;;;;;;4962532;28;19926;-60
2024/02/21 01:21:40;;;;;;;;;;;8.50;86.10;;;;;;4968330;28;19933;-65
2024/02/21 01:24:14;;;;;;;;;;;8.40;86.20;;;;;;4963642;28;19934;-60
2024/02/21 01:26:47;;;;;;;;;;;8.40;86.30;;;;;;4967063;28;19930;-61
2024/02/21 01:29:20;;;;;;;;;;;8.40;86.30;;;;;;4965095;28;19930;-60
2024/02/21 01:31:53;;;;;;;;;;;8.40;86.20;;;;;;4967756;28;19930;-61
2024/02/21 01:34:26;;;;;;;;;;;8.40;86.40;;;;;;4970353;28;20559;-61
2024/02/21 01:37:04;;;;;;;;;;;8.40;86.50;;;;;;4966686;28;20037;-61
2024/02/21 01:39:38;;;;;;;;;;;8.40;86.40;;;;;;4962631;28;19992;-61
2024/02/21 01:42:11;;;;;;;;;;;8.40;86.50;;;;;;4963526;28;19984;-60
2024/02/21 01:44:44;;;;;;;;;;;8.40;86.50;;;;;;4962100;28;19964;-60
2024/02/21 01:47:17;;;;;;;;;;;8.40;86.60;;;;;;4965948;28;19937;-60
2024/02/21 01:49:50;;;;;;;;;;;8.40;86.70;;;;;;4963020;28;19965;-60
2024/02/21 01:52:25;;;;;;;;;;;8.30;86.80;;;;;;4963093;28;19926;-60
2024/02/21 01:54:58;;;;;;;;;;;8.30;86.90;;;;;;4967406;28;20282;-59
2024/02/21 01:57:32;;;;;;;;;;;8.30;87.00;;;;;;4966175;28;20040;-60
2024/02/21 02:00:10;;;;;;;;;;;8.30;87.00;;;;;;4956294;28;20069;-59
2024/02/21 02:02:43;;;;;;;;;;;8.30;86.90;;;;;;4958952;28;20025;-60
2024/02/21 02:05:17;;;;;;;;;;;8.30;87.00;;;;;;4961183;28;19930;-59
2024/02/21 02:07:51;;;;;;;;;;;8.30;87.00;;;;;;4963502;28;20283;-59
2024/02/21 02:10:25;;;;;;;;;;;8.30;87.00;;;;;;4963941;28;20021;-58
2024/02/21 02:12:58;;;;;;;;;;;8.20;87.00;;;;;;4963735;28;19926;-60
2024/02/21 02:15:38;;;;;;;;;;;8.20;87.10;;;;;;4962478;28;19942;-59
2024/02/21 02:18:11;;;;;;;;;;;8.20;87.10;;;;;;4962839;28;19934;-60
2024/02/21 02:20:45;;;;;;;;;;;8.20;87.00;;;;;;4966726;28;19934;-60
2024/02/21 02:23:22;;;;;;;;;;;8.20;87.10;;;;;;4964384;28;19965;-59
2024/02/21 02:25:55;;;;;;;;;;;8.20;87.20;;;;;;4963395;28;20378;-59
2024/02/21 02:28:22;;;;;;;;;;;8.20;87.10;;;;;;4961303;28;19926;-59
2024/02/21 02:30:56;;;;;;;;;;;8.20;87.20;;;;;;4965049;28;20013;-59
2024/02/21 02:33:29;;;;;;;;;;;8.20;87.10;;;;;;4966128;28;19941;-60
2024/02/21 02:36:02;;;;;;;;;;;8.20;87.20;;;;;;4961615;28;19930;-60
2024/02/21 02:38:37;;;;;;;;;;;8.20;87.30;;;;;;4957638;28;19930;-59
2024/02/21 02:41:10;;;;;;;;;;;8.10;87.30;;;;;;4967026;28;19926;-59
2024/02/21 02:43:43;;;;;;;;;;;8.20;87.30;;;;;;4962525;28;19937;-59
2024/02/21 02:46:16;;;;;;;;;;;8.10;87.40;;;;;;4963948;28;19934;-59
2024/02/21 02:48:49;;;;;;;;;;;8.10;87.50;;;;;;4968598;28;20341;-60
2024/02/21 02:51:22;;;;;;;;;;;8.10;87.50;;;;;;4964580;28;21846;-59
2024/02/21 02:53:57;;;;;;;;;;;8.20;87.50;;;;;;4967678;28;19937;-59
2024/02/21 02:56:30;;;;;;;;;;;8.20;87.60;;;;;;4971909;28;19933;-76
2024/02/21 02:59:04;;;;;;;;;;;8.20;87.60;;;;;;4966659;28;19977;-72
2024/02/21 03:01:38;;;;;;;;;;;8.20;87.70;;;;;;4967777;28;19926;-76
2024/02/21 03:04:11;;;;;;;;;;;8.10;87.70;;;;;;4969340;28;19932;-76
2024/02/21 03:06:44;;;;;;;;;;;8.10;87.60;;;;;;4969597;28;20016;-72
2024/02/21 03:09:18;;;;;;;;;;;8.10;87.70;;;;;;4966200;28;19976;-74
2024/02/21 03:11:52;;;;;;;;;;;8.10;87.70;;;;;;4968794;28;19934;-76
2024/02/21 03:14:25;;;;;;;;;;;8.10;87.80;;;;;;4967661;28;20349;-76
2024/02/21 03:16:58;;;;;;;;;;;8.10;87.80;;;;;;4969352;28;19927;-77
2024/02/21 03:19:32;;;;;;;;;;;8.10;87.80;;;;;;4971109;28;20381;-76
2024/02/21 03:22:06;;;;;;;;;;;8.10;87.80;;;;;;4968553;28;19977;-76
2024/02/21 03:24:40;;;;;;;;;;;8.10;87.90;;;;;;4973760;28;19941;-73
2024/02/21 03:27:14;;;;;;;;;;;8.10;87.80;;;;;;4972724;28;20016;-75
2024/02/21 03:29:47;;;;;;;;;;;8.10;87.80;;;;;;4969688;28;20817;-78
2024/02/21 03:32:20;;;;;;;;;;;8.10;87.80;;;;;;4971240;28;19934;-76
2024/02/21 03:34:53;;;;;;;;;;;8.00;87.80;;;;;;4972416;28;19926;-77
2024/02/21 03:37:33;;;;;;;;;;;8.00;88.00;;;;;;4970395;28;19931;-77
2024/02/21 03:40:09;;;;;;;;;;;8.00;87.90;;;;;;4968046;28;19937;-76
2024/02/21 03:42:43;;;;;;;;;;;8.00;87.90;;;;;;4968864;28;19930;-77
2024/02/21 03:45:17;;;;;;;;;;;8.00;88.10;;;;;;4967371;28;19973;-80
2024/02/21 03:47:50;;;;;;;;;;;7.90;88.20;;;;;;4970749;28;20400;-79
2024/02/21 03:50:24;;;;;;;;;;;7.90;88.20;;;;;;4970186;28;19926;-77
2024/02/21 03:52:57;;;;;;;;;;;8.00;88.10;;;;;;4971668;28;20370;-78
2024/02/21 03:55:31;;;;;;;;;;;8.00;88.00;;;;;;4971541;28;19926;-75
2024/02/21 03:58:05;;;;;;;;;;;8.00;88.00;;;;;;4968250;28;19926;-75
2024/02/21 04:00:39;;;;;;;;;;;8.00;88.20;;;;;;4970500;28;19957;-77
2024/02/21 04:03:12;;;;;;;;;;;8.00;88.10;;;;;;4969816;28;20329;-79
2024/02/21 04:05:39;;;;;;;;;;;8.00;88.20;;;;;;4969352;28;19937;-61
2024/02/21 04:08:12;;;;;;;;;;;8.00;88.20;;;;;;4968025;28;19933;-61
2024/02/21 04:10:46;;;;;;;;;;;8.00;88.10;;;;;;4967209;28;19938;-61
2024/02/21 04:13:22;;;;;;;;;;;8.00;88.20;;;;;;4963072;28;19926;-62
2024/02/21 04:16:03;;;;;;;;;;;8.00;88.10;;;;;;4966866;28;19930;-60
2024/02/21 04:18:36;;;;;;;;;;;8.00;88.00;;;;;;4964667;28;19977;-61
2024/02/21 04:21:09;;;;;;;;;;;8.00;88.10;;;;;;4965075;28;19926;-61
2024/02/21 04:23:43;;;;;;;;;;;8.00;88.00;;;;;;4967730;28;20274;-61
2024/02/21 04:26:17;;;;;;;;;;;8.00;88.20;;;;;;4966663;28;20032;-63
2024/02/21 04:28:51;;;;;;;;;;;8.00;88.20;;;;;;4959991;28;19926;-63
2024/02/21 04:31:24;;;;;;;;;;;8.00;88.30;;;;;;4965539;28;20661;-61
2024/02/21 04:33:57;;;;;;;;;;;8.00;88.10;;;;;;4965587;28;19934;-62
2024/02/21 04:36:30;;;;;;;;;;;8.00;88.10;;;;;;4965381;28;19927;-61
2024/02/21 04:39:03;;;;;;;;;;;8.00;88.00;;;;;;4965373;28;19969;-61
2024/02/21 04:41:37;;;;;;;;;;;8.00;87.80;;;;;;4963651;28;19934;-62
2024/02/21 04:44:11;;;;;;;;;;;8.00;87.80;;;;;;4963303;28;19962;-61
2024/02/21 04:46:44;;;;;;;;;;;8.00;87.70;;;;;;4962978;28;19933;-61
2024/02/21 04:49:17;;;;;;;;;;;8.00;87.60;;;;;;4968352;28;19931;-62
2024/02/21 04:51:50;;;;;;;;;;;8.00;87.60;;;;;;4965888;28;19934;-60
2024/02/21 04:54:23;;;;;;;;;;;8.00;87.70;;;;;;4966376;28;19934;-61
2024/02/21 04:56:57;;;;;;;;;;;8.00;87.60;;;;;;4965909;28;20675;-61
2024/02/21 04:59:31;;;;;;;;;;;8.00;87.50;;;;;;4963893;28;19934;-61
2024/02/21 05:02:04;;;;;;;;;;;8.00;87.40;;;;;;4963013;28;19938;-60
2024/02/21 05:04:31;;;;;;;;;;;8.00;87.50;;;;;;4961150;28;19937;-61
2024/02/21 05:07:04;;;;;;;;;;;8.00;87.30;;;;;;4966650;28;19959;-59
2024/02/21 05:09:38;;;;;;;;;;;8.00;87.40;;;;;;4962771;28;20009;-62
2024/02/21 05:12:12;;;;;;;;;;;8.00;87.50;;;;;;4963207;28;19934;-62
2024/02/21 05:14:46;;;;;;;;;;;8.00;87.30;;;;;;4963164;28;20009;-60
2024/02/21 05:17:19;;;;;;;;;;;8.10;87.30;;;;;;4966385;28;19938;-60
2024/02/21 05:19:52;;;;;;;;;;;8.10;87.40;;;;;;4967714;28;19930;-60
2024/02/21 05:22:25;;;;;;;;;;;8.10;87.30;;;;;;4958899;28;19937;-59
2024/02/21 05:24:58;;;;;;;;;;;8.10;87.30;;;;;;4969048;28;20042;-60
2024/02/21 05:27:32;;;;;;;;;;;8.10;87.20;;;;;;4968426;28;19937;-60
2024/02/21 05:30:07;;;;;;;;;;;8.10;87.40;;;;;;4964676;28;19948;-59
2024/02/21 05:32:41;;;;;;;;;;;8.10;87.20;;;;;;4964417;28;19957;-60
2024/02/21 05:35:14;;;;;;;;;;;8.10;87.40;;;;;;4968761;28;19926;-60
2024/02/21 05:37:52;;;;;;;;;;;8.10;87.30;;;;;;4965281;28;19930;-59
2024/02/21 05:40:25;;;;;;;;;;;8.10;87.20;;;;;;4964632;28;20020;-60
2024/02/21 05:43:00;;;;;;;;;;;8.10;87.30;;;;;;4957909;28;19941;-61
2024/02/21 05:45:33;;;;;;;;;;;8.10;87.20;;;;;;4960780;28;19926;-60
2024/02/21 05:48:06;;;;;;;;;;;8.10;87.30;;;;;;4965516;28;20014;-61
2024/02/21 05:50:39;;;;;;;;;;;8.10;87.20;;;;;;4962666;28;19934;-62
2024/02/21 05:53:12;;;;;;;;;;;8.10;87.30;;;;;;4961084;28;19971;-59
2024/02/21 05:55:45;;;;;;;;;;;8.10;87.30;;;;;;4963832;28;19930;-61
2024/02/21 05:58:19;;;;;;;;;;;8.10;87.20;;;;;;4964750;28;19933;-60
2024/02/21 06:00:54;;;;;;;;;;;8.10;87.30;;;;;;4959999;28;19981;-60
2024/02/21 06:03:32;;;;;;;;;;;8.10;87.30;;;;;;4964553;28;19953;-60
2024/02/21 06:06:06;;;;;;;;;;;8.10;87.30;;;;;;4964567;28;19927;-59
2024/02/21 06:08:40;;;;;;;;;;;8.10;87.30;;;;;;4964447;28;20017;-60
2024/02/21 06:11:15;;;;;;;;;;;8.10;87.20;;;;;;4964010;28;20009;-59
2024/02/21 06:16:57;;;;;;;;;;;8.10;87.10;;;;;;4956423;28;19934;-60
2024/02/21 06:19:31;;;;;;;;;;;8.10;87.10;;;;;;4959921;28;19934;-59
2024/02/21 06:22:07;;;;;;;;;;;8.10;86.90;;;;;;4960268;28;20012;-60
2024/02/21 06:24:41;;;;;;;;;;;8.10;86.90;;;;;;4965314;28;20329;-70
2024/02/21 06:27:16;;;;;;;;;;;8.10;86.90;;;;;;4964472;28;20308;-70
2024/02/21 06:29:49;;;;;;;;;;;8.10;87.00;;;;;;4959750;28;19957;-70
2024/02/21 06:32:24;;;;;;;;;;;8.10;86.90;;;;;;4967569;28;19926;-70
2024/02/21 06:34:57;;;;;;;;;;;8.00;86.90;;;;;;4967330;28;20285;-69
2024/02/21 06:37:32;;;;;;;;;;;8.10;87.00;;;;;;4963848;28;19941;-70
2024/02/21 06:40:38;;;;;;;;;;;8.00;87.00;;;;;;4964181;28;20100;-70
2024/02/21 06:43:11;;;;;;;;;;;8.10;87.10;;;;;;4964892;28;19933;-71
2024/02/21 06:45:47;;;;;;;;;;;8.10;87.00;;;;;;4961134;28;19993;-71
2024/02/21 06:48:22;;;;;;;;;;;8.10;86.80;;;;;;4962164;28;19934;-72
2024/02/21 06:50:55;;;;;;;;;;;8.10;86.90;;;;;;4965378;28;20317;-70
2024/02/21 06:53:28;;;;;;;;;;;8.10;86.80;;;;;;4954839;28;20321;-71
2024/02/21 06:56:05;;;;;;;;;;;8.10;86.90;;;;;;4962813;28;20021;-71
2024/02/21 06:58:38;;;;;;;;;;;8.10;86.80;;;;;;4964441;28;19930;-71
2024/02/21 07:01:11;;;;;;;;;;;8.10;86.90;;;;;;4967126;28;19930;-71
2024/02/21 07:03:39;;;;;;;;;;;8.10;86.80;;;;;;4961005;28;19984;-70
2024/02/21 07:06:13;;;;;;;;;;;8.10;86.80;;;;;;4965730;28;20305;-71
2024/02/21 07:08:40;;;;;;;;;;;8.20;86.70;;;;;;4960391;28;19934;-70
2024/02/21 07:11:13;;;;;;;;;;;8.20;86.50;;;;;;4967860;28;19926;-71
2024/02/21 07:13:46;;;;;;;;;;;8.20;86.50;;;;;;4967129;28;20025;-71
2024/02/21 07:16:19;;;;;;;;;;;8.10;86.50;;;;;;4969125;28;20366;-71
2024/02/21 07:18:53;;;;;;;;;;;8.10;86.60;;;;;;4960778;28;20271;-70
2024/02/21 07:21:27;;;;;;;;;;;8.10;86.70;;;;;;4966994;28;19930;-70
2024/02/21 07:24:00;;;;;;;;;;;8.10;86.60;;;;;;4961005;28;19985;-71
2024/02/21 07:26:33;;;;;;;;;;;8.10;86.60;;;;;;4966627;28;19926;-70
2024/02/21 07:29:06;;;;;;;;;;;8.10;86.50;;;;;;4966561;28;20004;-69
2024/02/21 07:31:41;;;;;;;;;;;8.10;86.50;;;;;;4965043;28;19934;-71
2024/02/21 07:34:17;;;;;;;;;;;8.10;86.50;;;;;;4966528;28;19926;-62
2024/02/21 07:36:50;;;;;;;;;;;8.20;86.40;;;;;;4967042;28;20020;-61
2024/02/21 07:39:23;;;;;;;;;;;8.20;86.20;;;;;;4966537;28;19972;-62
2024/02/21 07:41:56;;;;;;;;;;;8.10;86.30;;;;;;4963790;28;20028;-62
2024/02/21 07:44:29;;;;;;;;;;;8.20;86.20;;;;;;4966481;28;19938;-62
2024/02/21 07:47:02;;;;;;;;;;;8.20;86.10;;;;;;4964618;28;19930;-60
2024/02/21 07:49:44;;;;;;;;;;;8.20;86.10;;;;;;4967153;28;20452;-62
2024/02/21 07:52:17;;;;;;;;;;;8.30;86.00;;;;;;4964204;28;19937;-60
2024/02/21 07:54:50;;;;;;;;;;;8.30;85.80;;;;;;4966581;28;20764;-60
2024/02/21 07:57:24;;;;;;;;;;;8.30;85.70;;;;;;4966518;28;19930;-62
2024/02/21 07:59:51;;;;;;;;;;;8.40;85.70;;;;;;4966056;28;19937;-61
2024/02/21 08:02:24;;;;;;;;;;;8.40;85.60;;;;;;4968565;28;19984;-60
2024/02/21 08:04:59;;;;;;;;;;;8.40;85.30;;;;;;4956539;28;20468;-61
2024/02/21 08:07:32;;;;;;;;;;;8.50;85.30;;;;;;4963858;28;19961;-62
2024/02/21 08:10:07;;;;;;;;;;;8.50;85.30;;;;;;4965722;28;19932;-60
2024/02/21 08:12:40;;;;;;;;;;;8.50;85.10;;;;;;4969000;28;20548;-61
2024/02/21 08:15:13;;;;;;;;;;;8.60;85.00;;;;;;4959150;28;19932;-62
2024/02/21 08:18:12;;;;;;;;;;;8.60;84.80;;;;;;4964604;28;20128;-60
2024/02/21 08:20:46;;;;;;;;;;;8.60;84.80;;;;;;4963140;28;19930;-61
2024/02/21 08:23:20;;;;;;;;;;;8.70;84.90;;;;;;4969174;28;19989;-61
2024/02/21 08:25:53;;;;;;;;;;;8.70;84.70;;;;;;4967597;28;19936;-62
2024/02/21 08:28:42;;;;;;;;;;;8.80;84.70;;;;;;4963290;28;20041;-63
2024/02/21 08:31:19;;;;;;;;;;;8.80;84.50;;;;;;4964157;28;19933;-70
2024/02/21 08:33:52;;;;;;;;;;;8.90;84.30;;;;;;4964290;28;20285;-69
2024/02/21 08:36:26;;;;;;;;;;;8.90;84.20;;;;;;4967435;28;20036;-70
2024/02/21 08:38:59;;;;;;;;;;;8.90;84.10;;;;;;4965230;28;20008;-71
2024/02/21 08:41:33;;;;;;;;;;;8.90;83.90;;;;;;4968144;28;19930;-72
2024/02/21 08:44:07;;;;;;;;;;;8.90;83.90;;;;;;4966115;28;20173;-61
2024/02/21 08:46:40;;;;;;;;;;;8.90;84.10;;;;;;4961568;28;20021;-62
2024/02/21 08:49:14;;;;;;;;;;;8.90;84.00;;;;;;4958905;28;19957;-61
2024/02/21 08:51:49;;;;;;;;;;;8.90;83.70;;;;;;4965417;28;19980;-62
2024/02/21 08:54:42;;;;;;;;;;;9.00;83.70;;;;;;4967170;28;20561;-61
2024/02/21 08:57:41;;;;;;;;;;;9.00;83.60;;;;;;4958907;28;20452;-63
2024/02/21 09:00:16;;;;;;;;;;;9.10;83.40;;;;;;4964240;28;19930;-60
2024/02/21 09:02:49;;;;;;;;;;;9.10;83.20;;;;;;4963978;28;19948;-60
2024/02/21 09:05:22;;;;;;;;;;;9.20;82.80;;;;;;4966084;28;19949;-60
2024/02/21 09:07:56;;;;;;;;;;;9.20;82.90;;;;;;4962371;28;19945;-62
2024/02/21 09:10:31;;;;;;;;;;;9.20;82.80;;;;;;4962966;28;19965;-61
2024/02/21 09:13:04;;;;;;;;;;;9.20;82.50;;;;;;4960555;28;20714;-62
2024/02/21 09:15:37;;;;;;;;;;;9.30;82.50;;;;;;4963462;28;19930;-61
2024/02/21 09:18:11;;;;;;;;;;;9.30;82.30;;;;;;4966203;28;20591;-61
2024/02/21 09:20:44;;;;;;;;;;;9.30;82.10;;;;;;4968838;28;20380;-62
2024/02/21 09:23:44;;;;;;;;;;;9.30;82.20;;;;;;4962082;28;19937;-62
2024/02/21 09:26:17;;;;;;;;;;;9.30;82.20;;;;;;4963134;28;20611;-61
2024/02/21 09:28:51;;;;;;;;;;;9.30;81.90;;;;;;4963597;28;20016;-62
2024/02/21 09:31:24;;;;;;;;;;;9.30;81.90;;;;;;4962321;28;20033;-61
2024/02/21 09:33:51;;;;;;;;;;;9.30;81.60;;;;;;4964827;28;19926;-60
2024/02/21 09:36:24;;;;;;;;;;;9.40;81.60;;;;;;4966170;28;19937;-61
2024/02/21 09:38:58;;;;;;;;;;;9.40;81.60;;;;;;4960777;28;19937;-62
2024/02/21 09:41:33;;;;;;;;;;;9.40;81.40;;;;;;4965197;28;19933;-61
2024/02/21 09:44:07;;;;;;;;;;;9.50;81.40;;;;;;4964973;28;19970;-60
2024/02/21 09:46:43;;;;;;;;;;;9.60;81.30;;;;;;4963007;28;19930;-61
2024/02/21 09:49:49;;;;;;;;;;;9.70;81.00;;;;;;4963610;28;19961;-61
2024/02/21 09:52:25;;;;;;;;;;;9.80;80.70;;;;;;4959950;28;19926;-62
2024/02/21 09:55:00;;;;;;;;;;;9.90;80.40;;;;;;4963120;28;20026;-62
2024/02/21 09:57:33;;;;;;;;;;;9.90;80.30;;;;;;4963312;28;19937;-61
2024/02/21 10:00:08;;;;;;;;;;;10.00;80.00;;;;;;4962354;28;19930;-61
2024/02/21 10:02:41;;;;;;;;;;;10.00;79.90;;;;;;4965009;28;20393;-62
2024/02/21 10:05:14;;;;;;;;;;;10.10;79.60;;;;;;4966394;28;19948;-59
2024/02/21 10:07:47;;;;;;;;;;;10.00;79.30;;;;;;4968158;28;20000;-60
2024/02/21 10:10:23;;;;;;;;;;;10.10;79.00;;;;;;4961233;28;20055;-60
2024/02/21 10:12:57;;;;;;;;;;;10.10;79.10;;;;;;4960187;28;19937;-59
2024/02/21 10:15:30;;;;;;;;;;;10.10;78.90;;;;;;4962357;28;19933;-60
2024/02/21 10:18:04;;;;;;;;;;;10.10;78.90;;;;;;4957931;28;20395;-60
2024/02/21 10:20:38;;;;;;;;;;;10.10;78.70;;;;;;4964784;28;19930;-59
2024/02/21 10:23:11;;;;;;;;;;;10.20;78.70;;;;;;4964874;28;19934;-59
2024/02/21 10:25:47;;;;;;;;;;;10.30;78.30;;;;;;4960952;28;19941;-59
2024/02/21 10:28:23;;;;;;;;;;;10.40;78.30;;;;;;4958918;28;19934;-61
2024/02/21 10:30:56;;;;;;;;;;;10.50;78.20;;;;;;4958088;28;22066;-60
2024/02/21 10:33:32;;;;;;;;;;;10.50;77.90;;;;;;4970136;28;20012;-59
2024/02/21 10:36:10;;;;;;;;;;;10.60;77.70;;;;;;4967764;28;19926;-61
2024/02/21 10:38:43;;;;;;;;;;;10.60;77.50;;;;;;4967337;28;19937;-61
2024/02/21 10:41:20;;;;;;;;;;;10.60;77.20;;;;;;4966868;28;20008;-61
2024/02/21 10:43:54;;;;;;;;;;;10.70;77.10;;;;;;4971736;28;19927;-60
2024/02/21 10:46:35;;;;;;;;;;;10.70;76.60;;;;;;4969652;28;19933;-60
2024/02/21 10:49:11;;;;;;;;;;;10.80;76.30;;;;;;4969124;28;19927;-61
2024/02/21 10:51:45;;;;;;;;;;;10.80;76.00;;;;;;4969846;28;19949;-61
2024/02/21 10:54:45;;;;;;;;;;;10.80;75.80;;;;;;4965714;28;19933;-62
2024/02/21 10:57:46;;;;;;;;;;;11.00;75.60;;;;;;4964400;28;19933;-60
2024/02/21 11:00:19;;;;;;;;;;;10.90;75.50;;;;;;4970017;28;19934;-60
2024/02/21 11:02:52;;;;;;;;;;;10.90;75.60;;;;;;4974285;28;20033;-60
2024/02/21 11:05:26;;;;;;;;;;;11.00;75.50;;;;;;4973524;28;19929;-61
2024/02/21 11:07:59;;;;;;;;;;;11.10;75.60;;;;;;4973239;28;20060;-59
2024/02/21 11:10:32;;;;;;;;;;;11.10;75.50;;;;;;4974200;28;19933;-59
2024/02/21 11:13:10;;;;;;;;;;;11.10;75.40;;;;;;4971833;28;20374;-60
2024/02/21 11:15:43;;;;;;;;;;;11.20;75.00;;;;;;4972814;28;19930;-60
2024/02/21 11:18:24;;;;;;;;;;;11.20;75.00;;;;;;4972691;28;20021;-60
2024/02/21 11:24:30;;;;;;;;;;;11.40;74.50;;;;;;4970354;28;19962;-59
2024/02/21 11:27:10;;;;;;;;;;;11.50;74.20;;;;;;4973587;28;20025;-59
2024/02/21 11:29:45;;;;;;;;;;;11.60;73.80;;;;;;4972109;28;19934;-59
2024/02/21 11:32:20;;;;;;;;;;;11.70;73.50;;;;;;4973384;28;19926;-60
2024/02/21 11:34:55;;;;;;;;;;;11.60;73.50;;;;;;4971859;28;19934;-60
2024/02/21 11:37:29;;;;;;;;;;;11.60;73.00;;;;;;4973251;28;19930;-59
2024/02/21 11:40:03;;;;;;;;;;;11.60;73.00;;;;;;4971565;28;19926;-60
2024/02/21 11:42:30;;;;;;;;;;;11.60;73.30;;;;;;4970626;28;19934;-60
2024/02/21 11:45:05;;;;;;;;;;;11.60;73.00;;;;;;4969755;28;19933;-59
2024/02/21 11:47:41;;;;;;;;;;;11.70;73.00;;;;;;4970836;28;19949;-59
2024/02/21 11:50:14;;;;;;;;;;;11.60;72.80;;;;;;4969303;28;19926;-60
2024/02/21 11:52:41;;;;;;;;;;;11.70;72.70;;;;;;4968432;28;20606;-60
2024/02/21 11:55:14;;;;;;;;;;;11.60;72.60;;;;;;4970291;28;19948;-59
2024/02/21 12:00:49;;;;;;;;;;;11.70;72.90;;;;;;4961854;28;20072;-60
2024/02/21 12:03:22;;;;;;;;;;;11.70;72.90;;;;;;4967719;28;19929;-61
2024/02/21 12:05:56;;;;;;;;;;;11.70;72.70;;;;;;4966688;28;19927;-60
2024/02/21 12:08:43;;;;;;;;;;;11.70;72.10;;;;;;4968138;28;20014;-61
2024/02/21 12:11:18;;;;;;;;;;;11.70;72.20;;;;;;4962550;28;20738;-60
2024/02/21 12:14:02;;;;;;;;;;;11.70;72.10;;;;;;4965080;28;19933;-61
2024/02/21 12:16:37;;;;;;;;;;;11.70;72.60;;;;;;4966299;28;19934;-71
2024/02/21 12:19:11;;;;;;;;;;;11.70;72.30;;;;;;4967590;28;19966;-70
2024/02/21 12:21:44;;;;;;;;;;;11.70;72.40;;;;;;4969821;28;19930;-71
2024/02/21 12:24:20;;;;;;;;;;;11.80;72.50;;;;;;4969204;28;20017;-71
2024/02/21 12:26:54;;;;;;;;;;;11.90;72.10;;;;;;4969298;28;19934;-72
2024/02/21 12:29:28;;;;;;;;;;;11.80;72.10;;;;;;4968210;28;19937;-69
2024/02/21 12:32:04;;;;;;;;;;;11.90;72.40;;;;;;4969566;28;19948;-70
2024/02/21 12:34:38;;;;;;;;;;;11.90;72.10;;;;;;4968711;28;20021;-69
2024/02/21 12:40:40;;;;;;;;;;;11.90;71.90;;;;;;4968931;28;20399;-70
2024/02/21 12:43:13;;;;;;;;;;;11.90;71.90;;;;;;4970361;28;19930;-71
2024/02/21 12:45:46;;;;;;;;;;;11.90;71.90;;;;;;4969748;28;19945;-70
2024/02/21 12:48:22;;;;;;;;;;;11.90;72.30;;;;;;4967617;28;19937;-70
2024/02/21 12:50:55;;;;;;;;;;;11.90;72.40;;;;;;4968307;28;19933;-69
2024/02/21 12:53:29;;;;;;;;;;;11.90;72.30;;;;;;4969786;28;19934;-70
2024/02/21 12:56:04;;;;;;;;;;;11.80;72.40;;;;;;4968610;28;20305;-71
2024/02/21 12:58:44;;;;;;;;;;;11.90;72.60;;;;;;4969893;28;19992;-68
2024/02/21 13:01:17;;;;;;;;;;;11.90;72.40;;;;;;4969562;28;19961;-71
2024/02/21 13:03:52;;;;;;;;;;;11.90;72.50;;;;;;4968865;28;20035;-71
2024/02/21 13:06:26;;;;;;;;;;;11.90;72.40;;;;;;4968897;28;20020;-70
2024/02/21 13:09:03;;;;;;;;;;;11.90;72.00;;;;;;4967956;28;20025;-70
2024/02/21 13:11:37;;;;;;;;;;;11.90;72.10;;;;;;4969050;28;19926;-71
2024/02/21 13:14:10;;;;;;;;;;;12.00;72.40;;;;;;4969097;28;20442;-71
2024/02/21 13:16:43;;;;;;;;;;;12.00;72.20;;;;;;4977879;28;20330;-70
2024/02/21 13:19:18;;;;;;;;;;;12.00;72.10;;;;;;4969086;28;20371;-70
2024/02/21 13:21:51;;;;;;;;;;;12.00;71.80;;;;;;4966833;28;20424;-71
2024/02/21 13:24:24;;;;;;;;;;;12.10;71.90;;;;;;4969808;28;22377;-69
2024/02/21 13:26:57;;;;;;;;;;;12.40;71.40;;;;;;4970547;28;19937;-69
2024/02/21 13:29:30;;;;;;;;;;;12.40;71.10;;;;;;4970252;28;19926;-71
2024/02/21 13:32:03;;;;;;;;;;;12.50;71.10;;;;;;4961357;28;19926;-73
2024/02/21 13:34:38;;;;;;;;;;;12.60;70.70;;;;;;4971013;28;19926;-72
2024/02/21 13:37:11;;;;;;;;;;;12.60;70.70;;;;;;4969999;28;20350;-71
2024/02/21 13:39:44;;;;;;;;;;;12.60;70.60;;;;;;4969400;28;19961;-71
2024/02/21 13:42:17;;;;;;;;;;;12.60;70.50;;;;;;4970871;28;20728;-70
2024/02/21 13:44:50;;;;;;;;;;;12.50;70.70;;;;;;4970516;28;19934;-69
2024/02/21 13:47:23;;;;;;;;;;;12.60;70.60;;;;;;4967659;28;20377;-70
2024/02/21 13:49:58;;;;;;;;;;;12.60;70.40;;;;;;4970756;28;19977;-70
2024/02/21 13:52:44;;;;;;;;;;;12.50;70.30;;;;;;4985066;28;19926;-71
2024/02/21 13:55:26;;;;;;;;;;;12.30;70.60;;;;;;4968749;28;19938;-71
2024/02/21 13:57:59;;;;;;;;;;;12.30;70.80;;;;;;4967619;28;19934;-70
2024/02/21 14:00:34;;;;;;;;;;;12.20;71.30;;;;;;4966492;28;19930;-66
2024/02/21 14:03:08;;;;;;;;;;;12.20;71.30;;;;;;4960049;28;19934;-66
2024/02/21 14:05:36;;;;;;;;;;;12.10;71.60;;;;;;4968080;28;19980;-69
2024/02/21 14:08:16;;;;;;;;;;;12.20;71.30;;;;;;4966125;28;20001;-70
2024/02/21 14:10:49;;;;;;;;;;;12.20;71.50;;;;;;4965937;28;19930;-68
2024/02/21 14:13:22;;;;;;;;;;;12.10;71.60;;;;;;4968959;28;19966;-69
2024/02/21 14:15:55;;;;;;;;;;;12.10;72.00;;;;;;4969674;28;19933;-69
2024/02/21 14:18:22;;;;;;;;;;;12.10;71.60;;;;;;4969539;28;19953;-69
2024/02/21 14:20:57;;;;;;;;;;;12.20;71.00;;;;;;4969196;28;19941;-68
2024/02/21 14:23:37;;;;;;;;;;;12.20;70.60;;;;;;4969637;28;19937;-67
2024/02/21 14:26:10;;;;;;;;;;;12.20;70.00;;;;;;4966565;28;19926;-68
2024/02/21 14:28:43;;;;;;;;;;;12.20;70.00;;;;;;4968806;28;19926;-67
2024/02/21 14:31:17;;;;;;;;;;;12.20;69.80;;;;;;4965301;28;19930;-68
2024/02/21 14:33:45;;;;;;;;;;;12.20;69.90;;;;;;4968959;28;19937;-71
2024/02/21 14:36:20;;;;;;;;;;;12.10;70.10;;;;;;4970563;28;19930;-74
2024/02/21 14:38:53;;;;;;;;;;;12.20;70.20;;;;;;4968994;28;19957;-75
2024/02/21 14:41:27;;;;;;;;;;;12.20;69.70;;;;;;4969696;28;19927;-78
2024/02/21 14:44:03;;;;;;;;;;;12.20;68.80;;;;;;4968701;28;20029;-76
2024/02/21 14:46:42;;;;;;;;;;;12.20;69.30;;;;;;4970758;28;19953;-76
2024/02/21 14:49:14;;;;;;;;;;;12.20;69.50;;;;;;4971203;28;19926;-77
2024/02/21 14:51:49;;;;;;;;;;;12.10;69.60;;;;;;4970996;28;19980;-78
2024/02/21 14:54:22;;;;;;;;;;;11.90;69.60;;;;;;4970878;28;20017;-77
2024/02/21 14:56:55;;;;;;;;;;;11.90;69.80;;;;;;4971343;28;20427;-76
2024/02/21 14:59:28;;;;;;;;;;;11.90;69.70;;;;;;4966278;28;20313;-80
2024/02/21 15:02:02;;;;;;;;;;;11.80;70.20;;;;;;4969946;28;20385;-76
2024/02/21 15:04:36;;;;;;;;;;;11.80;70.10;;;;;;4969877;28;19926;-76
2024/02/21 15:07:11;;;;;;;;;;;11.80;70.30;;;;;;4969739;28;19930;-74
2024/02/21 15:09:44;;;;;;;;;;;11.70;70.10;;;;;;4969984;28;19961;-76
2024/02/21 15:12:12;;;;;;;;;;;11.70;70.30;;;;;;4963948;28;19965;-71
2024/02/21 15:14:44;;;;;;;;;;;11.80;71.00;;;;;;4967626;28;19926;-73
2024/02/21 15:17:34;;;;;;;;;;;11.90;70.10;;;;;;4970834;28;19926;-75
2024/02/21 15:20:08;;;;;;;;;;;11.80;69.80;;;;;;4971358;28;19926;-74
2024/02/21 15:22:43;;;;;;;;;;;11.90;69.80;;;;;;4970145;28;19973;-74
2024/02/21 15:25:17;;;;;;;;;;;11.80;70.00;;;;;;4970874;28;19926;-77
2024/02/21 15:27:50;;;;;;;;;;;11.80;70.20;;;;;;4970644;28;20467;-77